sensor_id;sensor_type;location;lat;lon;timestamp;temperature;humidity
5246;DHT22;54412;51.206;6.888;2022-10-15T00:02:09;14.30;99.90
5246;DHT22;54412;51.206;6.888;2022-10-15T00:04:35;14.30;99.90
5246;DHT22;54412;51.206;6.888;2022-10-15T00:07:01;14.30;99.90
5246;DHT22;54412;51.206;6.888;2022-10-15T00:09:27;14.30;99.90
5246;DHT22;54412;51.206;6.888;2022-10-15T00:11:53;14.40;99.90
5246;DHT22;54412;51.206;6.888;2022-10-15T00:14:18;14.40;99.90
5246;DHT22;54412;51.206;6.888;2022-10-15T00:16:44;14.40;99.90
5246;DHT22;54412;51.206;6.888;2022-10-15T00:19:10;14.40;99.90
5246;DHT22;54412;51.206;6.888;2022-10-15T00:21:37;14.30;99.90
5246;DHT22;54412;51.206;6.888;2022-10-15T00:24:03;14.30;99.90
5246;DHT22;54412;51.206;6.888;2022-10-15T00:26:29;14.30;99.90
5246;DHT22;54412;51.206;6.888;2022-10-15T00:28:58;14.30;99.90
5246;DHT22;54412;51.206;6.888;2022-10-15T00:31:27;14.30;99.90
5246;DHT22;54412;51.206;6.888;2022-10-15T00:33:56;14.30;99.90
5246;DHT22;54412;51.206;6.888;2022-10-15T00:36:26;14.30;99.90
5246;DHT22;54412;51.206;6.888;2022-10-15T00:38:54;14.20;99.90
5246;DHT22;54412;51.206;6.888;2022-10-15T00:41:26;14.20;99.90
5246;DHT22;54412;51.206;6.888;2022-10-15T00:43:57;14.20;99.90
5246;DHT22;54412;51.206;6.888;2022-10-15T00:46:41;14.20;99.90
5246;DHT22;54412;51.206;6.888;2022-10-15T00:51:59;14.10;99.90
5246;DHT22;54412;51.206;6.888;2022-10-15T00:54:27;14.10;99.90
5246;DHT22;54412;51.206;6.888;2022-10-15T00:56:56;14.10;99.90
5246;DHT22;54412;51.206;6.888;2022-10-15T00:59:24;14.10;99.90
5246;DHT22;54412;51.206;6.888;2022-10-15T01:01:52;14.10;99.90
5246;DHT22;54412;51.206;6.888;2022-10-15T01:04:19;14.10;99.90
5246;DHT22;54412;51.206;6.888;2022-10-15T01:06:46;14.10;99.90
5246;DHT22;54412;51.206;6.888;2022-10-15T01:09:12;14.10;99.90
5246;DHT22;54412;51.206;6.888;2022-10-15T01:11:47;14.10;99.90
5246;DHT22;54412;51.206;6.888;2022-10-15T01:14:27;14.00;99.90
5246;DHT22;54412;51.206;6.888;2022-10-15T01:17:09;14.10;99.90
5246;DHT22;54412;51.206;6.888;2022-10-15T01:26:24;14.10;99.90
5246;DHT22;54412;51.206;6.888;2022-10-15T01:29:39;14.10;99.90
5246;DHT22;54412;51.206;6.888;2022-10-15T01:32:33;14.10;99.90
5246;DHT22;54412;51.206;6.888;2022-10-15T01:35:03;14.10;99.90
5246;DHT22;54412;51.206;6.888;2022-10-15T01:37:43;14.10;99.90
5246;DHT22;54412;51.206;6.888;2022-10-15T01:40:42;14.10;99.90
5246;DHT22;54412;51.206;6.888;2022-10-15T01:43:31;14.10;99.90
5246;DHT22;54412;51.206;6.888;2022-10-15T01:46:10;14.10;99.90
5246;DHT22;54412;51.206;6.888;2022-10-15T01:48:40;14.10;99.90
5246;DHT22;54412;51.206;6.888;2022-10-15T01:51:09;14.10;99.90
5246;DHT22;54412;51.206;6.888;2022-10-15T01:53:37;14.00;99.90
5246;DHT22;54412;51.206;6.888;2022-10-15T01:56:10;14.00;99.90
5246;DHT22;54412;51.206;6.888;2022-10-15T01:58:42;14.00;99.90
5246;DHT22;54412;51.206;6.888;2022-10-15T02:01:10;14.00;99.90
5246;DHT22;54412;51.206;6.888;2022-10-15T02:03:54;14.00;99.90
5246;DHT22;54412;51.206;6.888;2022-10-15T02:06:36;14.10;99.90
5246;DHT22;54412;51.206;6.888;2022-10-15T02:09:26;14.00;99.90
5246;DHT22;54412;51.206;6.888;2022-10-15T02:12:05;14.10;99.90
5246;DHT22;54412;51.206;6.888;2022-10-15T02:15:11;14.10;99.90
5246;DHT22;54412;51.206;6.888;2022-10-15T02:18:10;14.10;99.90
5246;DHT22;54412;51.206;6.888;2022-10-15T02:21:05;14.00;99.90
5246;DHT22;54412;51.206;6.888;2022-10-15T02:26:41;14.00;99.90
5246;DHT22;54412;51.206;6.888;2022-10-15T02:29:11;14.10;99.90
5246;DHT22;54412;51.206;6.888;2022-10-15T02:31:43;14.10;99.90
5246;DHT22;54412;51.206;6.888;2022-10-15T02:34:16;14.10;99.90
5246;DHT22;54412;51.206;6.888;2022-10-15T02:36:44;14.00;99.90
5246;DHT22;54412;51.206;6.888;2022-10-15T02:39:15;14.10;99.90
5246;DHT22;54412;51.206;6.888;2022-10-15T02:41:46;14.10;99.90
5246;DHT22;54412;51.206;6.888;2022-10-15T02:44:13;14.00;99.90
5246;DHT22;54412;51.206;6.888;2022-10-15T02:46:39;14.00;99.90
5246;DHT22;54412;51.206;6.888;2022-10-15T02:49:04;14.00;99.90
5246;DHT22;54412;51.206;6.888;2022-10-15T02:51:32;14.10;99.90
5246;DHT22;54412;51.206;6.888;2022-10-15T02:53:59;14.00;99.90
5246;DHT22;54412;51.206;6.888;2022-10-15T02:56:27;14.00;99.90
5246;DHT22;54412;51.206;6.888;2022-10-15T02:58:53;14.00;99.90
5246;DHT22;54412;51.206;6.888;2022-10-15T03:01:18;14.00;99.90
5246;DHT22;54412;51.206;6.888;2022-10-15T03:03:44;14.00;99.90
5246;DHT22;54412;51.206;6.888;2022-10-15T03:06:10;14.10;99.90
5246;DHT22;54412;51.206;6.888;2022-10-15T03:08:36;14.10;99.90
5246;DHT22;54412;51.206;6.888;2022-10-15T03:11:02;14.10;99.90
5246;DHT22;54412;51.206;6.888;2022-10-15T03:13:28;14.10;99.90
5246;DHT22;54412;51.206;6.888;2022-10-15T03:15:54;14.10;99.90
5246;DHT22;54412;51.206;6.888;2022-10-15T03:18:20;14.20;99.90
5246;DHT22;54412;51.206;6.888;2022-10-15T03:20:56;14.10;99.90
5246;DHT22;54412;51.206;6.888;2022-10-15T03:23:22;14.10;99.90
5246;DHT22;54412;51.206;6.888;2022-10-15T03:25:48;14.10;99.90
5246;DHT22;54412;51.206;6.888;2022-10-15T03:28:14;14.10;99.90
5246;DHT22;54412;51.206;6.888;2022-10-15T03:30:40;14.10;99.90
5246;DHT22;54412;51.206;6.888;2022-10-15T03:33:07;14.10;99.90
5246;DHT22;54412;51.206;6.888;2022-10-15T03:35:33;14.10;99.90
5246;DHT22;54412;51.206;6.888;2022-10-15T03:37:58;14.10;99.90
5246;DHT22;54412;51.206;6.888;2022-10-15T03:40:24;14.10;99.90
5246;DHT22;54412;51.206;6.888;2022-10-15T03:42:51;14.10;99.90
5246;DHT22;54412;51.206;6.888;2022-10-15T03:45:18;14.10;99.90
5246;DHT22;54412;51.206;6.888;2022-10-15T03:47:44;14.10;99.90
5246;DHT22;54412;51.206;6.888;2022-10-15T03:50:11;14.20;99.90
5246;DHT22;54412;51.206;6.888;2022-10-15T03:52:38;14.10;99.90
5246;DHT22;54412;51.206;6.888;2022-10-15T03:55:05;14.10;99.90
5246;DHT22;54412;51.206;6.888;2022-10-15T03:57:31;14.20;99.90
5246;DHT22;54412;51.206;6.888;2022-10-15T03:59:57;14.20;99.90
5246;DHT22;54412;51.206;6.888;2022-10-15T04:02:23;14.20;99.90
5246;DHT22;54412;51.206;6.888;2022-10-15T04:04:52;14.20;99.90
5246;DHT22;54412;51.206;6.888;2022-10-15T04:07:19;14.10;99.90
5246;DHT22;54412;51.206;6.888;2022-10-15T04:09:46;14.10;99.90
5246;DHT22;54412;51.206;6.888;2022-10-15T04:12:12;14.10;99.90
5246;DHT22;54412;51.206;6.888;2022-10-15T04:14:39;14.20;99.90
5246;DHT22;54412;51.206;6.888;2022-10-15T04:17:05;14.10;99.90
5246;DHT22;54412;51.206;6.888;2022-10-15T04:19:32;14.20;99.90
5246;DHT22;54412;51.206;6.888;2022-10-15T04:21:58;14.20;99.90
5246;DHT22;54412;51.206;6.888;2022-10-15T04:24:24;14.20;99.90
5246;DHT22;54412;51.206;6.888;2022-10-15T04:26:49;14.20;99.90
5246;DHT22;54412;51.206;6.888;2022-10-15T04:29:15;14.10;99.90
5246;DHT22;54412;51.206;6.888;2022-10-15T04:31:41;14.20;99.90
5246;DHT22;54412;51.206;6.888;2022-10-15T04:34:07;14.10;99.90
5246;DHT22;54412;51.206;6.888;2022-10-15T04:36:33;14.20;99.90
5246;DHT22;54412;51.206;6.888;2022-10-15T04:39:00;14.20;99.90
5246;DHT22;54412;51.206;6.888;2022-10-15T04:41:26;14.20;99.90
5246;DHT22;54412;51.206;6.888;2022-10-15T04:43:52;14.20;99.90
5246;DHT22;54412;51.206;6.888;2022-10-15T04:46:18;14.20;99.90
5246;DHT22;54412;51.206;6.888;2022-10-15T04:48:46;14.20;99.90
5246;DHT22;54412;51.206;6.888;2022-10-15T04:51:18;14.20;99.90
5246;DHT22;54412;51.206;6.888;2022-10-15T04:53:45;14.20;99.90
5246;DHT22;54412;51.206;6.888;2022-10-15T04:56:16;14.20;99.90
5246;DHT22;54412;51.206;6.888;2022-10-15T04:58:45;14.20;99.90
5246;DHT22;54412;51.206;6.888;2022-10-15T05:01:13;14.20;99.90
5246;DHT22;54412;51.206;6.888;2022-10-15T05:03:42;14.20;99.90
5246;DHT22;54412;51.206;6.888;2022-10-15T05:08:40;14.20;99.90
5246;DHT22;54412;51.206;6.888;2022-10-15T05:11:27;14.20;99.90
5246;DHT22;54412;51.206;6.888;2022-10-15T05:13:54;14.20;99.90
5246;DHT22;54412;51.206;6.888;2022-10-15T05:16:27;14.20;99.90
5246;DHT22;54412;51.206;6.888;2022-10-15T05:18:58;14.20;99.90
5246;DHT22;54412;51.206;6.888;2022-10-15T05:21:27;14.10;99.90
5246;DHT22;54412;51.206;6.888;2022-10-15T05:23:53;14.10;99.90
5246;DHT22;54412;51.206;6.888;2022-10-15T05:26:21;14.10;99.90
5246;DHT22;54412;51.206;6.888;2022-10-15T05:28:49;14.10;99.90
5246;DHT22;54412;51.206;6.888;2022-10-15T05:31:20;14.10;99.90
5246;DHT22;54412;51.206;6.888;2022-10-15T05:33:48;14.10;99.90
5246;DHT22;54412;51.206;6.888;2022-10-15T05:36:27;14.00;99.90
5246;DHT22;54412;51.206;6.888;2022-10-15T05:38:55;14.10;99.90
5246;DHT22;54412;51.206;6.888;2022-10-15T05:41:23;14.10;99.90
5246;DHT22;54412;51.206;6.888;2022-10-15T05:43:51;14.10;99.90
5246;DHT22;54412;51.206;6.888;2022-10-15T05:46:19;14.10;99.90
5246;DHT22;54412;51.206;6.888;2022-10-15T05:48:52;14.10;99.90
5246;DHT22;54412;51.206;6.888;2022-10-15T05:51:19;14.10;99.90
5246;DHT22;54412;51.206;6.888;2022-10-15T05:53:46;14.10;99.90
5246;DHT22;54412;51.206;6.888;2022-10-15T05:56:12;14.20;99.90
5246;DHT22;54412;51.206;6.888;2022-10-15T05:58:39;14.20;99.90
5246;DHT22;54412;51.206;6.888;2022-10-15T06:01:08;14.10;99.90
5246;DHT22;54412;51.206;6.888;2022-10-15T06:03:36;14.20;99.90
5246;DHT22;54412;51.206;6.888;2022-10-15T06:06:03;14.20;99.90
5246;DHT22;54412;51.206;6.888;2022-10-15T06:08:30;14.10;99.90
5246;DHT22;54412;51.206;6.888;2022-10-15T06:11:03;14.10;99.90
5246;DHT22;54412;51.206;6.888;2022-10-15T06:13:29;14.10;99.90
5246;DHT22;54412;51.206;6.888;2022-10-15T06:15:55;14.20;99.90
5246;DHT22;54412;51.206;6.888;2022-10-15T06:18:20;14.20;99.90
5246;DHT22;54412;51.206;6.888;2022-10-15T06:20:52;14.30;99.90
5246;DHT22;54412;51.206;6.888;2022-10-15T06:23:18;14.30;99.90
5246;DHT22;54412;51.206;6.888;2022-10-15T06:25:44;14.30;99.90
5246;DHT22;54412;51.206;6.888;2022-10-15T06:28:10;14.20;99.90
5246;DHT22;54412;51.206;6.888;2022-10-15T06:30:36;14.20;99.90
5246;DHT22;54412;51.206;6.888;2022-10-15T06:33:02;14.20;99.90
5246;DHT22;54412;51.206;6.888;2022-10-15T06:35:27;14.20;99.90
5246;DHT22;54412;51.206;6.888;2022-10-15T06:37:55;14.20;99.90
5246;DHT22;54412;51.206;6.888;2022-10-15T06:40:24;14.20;99.90
5246;DHT22;54412;51.206;6.888;2022-10-15T06:42:49;14.30;99.90
5246;DHT22;54412;51.206;6.888;2022-10-15T06:45:15;14.30;99.90
5246;DHT22;54412;51.206;6.888;2022-10-15T06:47:41;14.30;99.90
5246;DHT22;54412;51.206;6.888;2022-10-15T06:50:07;14.30;99.90
5246;DHT22;54412;51.206;6.888;2022-10-15T06:52:33;14.30;99.90
5246;DHT22;54412;51.206;6.888;2022-10-15T06:54:59;14.30;99.90
5246;DHT22;54412;51.206;6.888;2022-10-15T06:57:28;14.30;99.90
5246;DHT22;54412;51.206;6.888;2022-10-15T06:59:54;14.30;99.90
5246;DHT22;54412;51.206;6.888;2022-10-15T07:02:20;14.30;99.90
5246;DHT22;54412;51.206;6.888;2022-10-15T07:04:46;14.20;99.90
5246;DHT22;54412;51.206;6.888;2022-10-15T07:07:13;14.30;99.90
5246;DHT22;54412;51.206;6.888;2022-10-15T07:09:39;14.30;99.90
5246;DHT22;54412;51.206;6.888;2022-10-15T07:12:05;14.30;99.90
5246;DHT22;54412;51.206;6.888;2022-10-15T07:14:31;14.30;99.90
5246;DHT22;54412;51.206;6.888;2022-10-15T07:16:57;14.30;99.90
5246;DHT22;54412;51.206;6.888;2022-10-15T07:19:23;14.30;99.90
5246;DHT22;54412;51.206;6.888;2022-10-15T07:21:50;14.40;99.90
5246;DHT22;54412;51.206;6.888;2022-10-15T07:24:16;14.40;99.90
5246;DHT22;54412;51.206;6.888;2022-10-15T07:26:41;14.40;99.90
5246;DHT22;54412;51.206;6.888;2022-10-15T07:29:07;14.40;99.90
5246;DHT22;54412;51.206;6.888;2022-10-15T07:31:33;14.50;99.90
5246;DHT22;54412;51.206;6.888;2022-10-15T07:33:59;14.50;99.90
5246;DHT22;54412;51.206;6.888;2022-10-15T07:36:25;14.40;99.90
5246;DHT22;54412;51.206;6.888;2022-10-15T07:38:51;14.40;99.90
5246;DHT22;54412;51.206;6.888;2022-10-15T07:41:17;14.40;99.90
5246;DHT22;54412;51.206;6.888;2022-10-15T07:43:43;14.40;99.90
5246;DHT22;54412;51.206;6.888;2022-10-15T07:46:10;14.50;99.90
5246;DHT22;54412;51.206;6.888;2022-10-15T07:48:36;14.50;99.90
5246;DHT22;54412;51.206;6.888;2022-10-15T07:51:05;14.50;99.90
5246;DHT22;54412;51.206;6.888;2022-10-15T07:53:32;14.60;99.90
5246;DHT22;54412;51.206;6.888;2022-10-15T07:55:59;14.70;99.90
5246;DHT22;54412;51.206;6.888;2022-10-15T07:58:27;14.60;99.90
5246;DHT22;54412;51.206;6.888;2022-10-15T08:00:55;14.70;99.90
5246;DHT22;54412;51.206;6.888;2022-10-15T08:03:24;14.70;99.90
5246;DHT22;54412;51.206;6.888;2022-10-15T08:05:50;14.70;99.90
5246;DHT22;54412;51.206;6.888;2022-10-15T08:08:18;14.70;99.90
5246;DHT22;54412;51.206;6.888;2022-10-15T08:10:45;14.90;99.90
5246;DHT22;54412;51.206;6.888;2022-10-15T08:13:11;15.00;99.90
5246;DHT22;54412;51.206;6.888;2022-10-15T08:15:38;15.00;99.90
5246;DHT22;54412;51.206;6.888;2022-10-15T08:18:05;15.10;99.90
5246;DHT22;54412;51.206;6.888;2022-10-15T08:20:31;15.10;99.90
5246;DHT22;54412;51.206;6.888;2022-10-15T08:22:57;15.10;99.90
5246;DHT22;54412;51.206;6.888;2022-10-15T08:25:23;15.20;99.90
5246;DHT22;54412;51.206;6.888;2022-10-15T08:27:51;15.10;99.90
5246;DHT22;54412;51.206;6.888;2022-10-15T08:30:17;15.10;99.90
5246;DHT22;54412;51.206;6.888;2022-10-15T08:32:43;15.10;99.90
5246;DHT22;54412;51.206;6.888;2022-10-15T08:35:09;15.00;99.90
5246;DHT22;54412;51.206;6.888;2022-10-15T08:37:34;15.00;99.90
5246;DHT22;54412;51.206;6.888;2022-10-15T08:40:01;15.00;99.90
5246;DHT22;54412;51.206;6.888;2022-10-15T08:42:39;15.00;99.90
5246;DHT22;54412;51.206;6.888;2022-10-15T08:45:16;15.00;99.90
5246;DHT22;54412;51.206;6.888;2022-10-15T08:47:56;15.10;99.90
5246;DHT22;54412;51.206;6.888;2022-10-15T08:50:44;15.20;99.90
5246;DHT22;54412;51.206;6.888;2022-10-15T08:53:21;15.30;99.90
5246;DHT22;54412;51.206;6.888;2022-10-15T08:55:50;15.40;99.90
5246;DHT22;54412;51.206;6.888;2022-10-15T08:58:24;15.40;99.90
5246;DHT22;54412;51.206;6.888;2022-10-15T09:01:02;15.40;99.90
5246;DHT22;54412;51.206;6.888;2022-10-15T09:09:24;15.50;99.90
5246;DHT22;54412;51.206;6.888;2022-10-15T09:12:09;15.50;99.90
5246;DHT22;54412;51.206;6.888;2022-10-15T09:15:00;15.50;99.90
5246;DHT22;54412;51.206;6.888;2022-10-15T09:17:31;15.50;99.90
5246;DHT22;54412;51.206;6.888;2022-10-15T09:20:03;15.50;99.90
5246;DHT22;54412;51.206;6.888;2022-10-15T09:22:32;15.50;99.90
5246;DHT22;54412;51.206;6.888;2022-10-15T09:25:12;15.60;99.90
5246;DHT22;54412;51.206;6.888;2022-10-15T09:27:47;15.60;99.90
5246;DHT22;54412;51.206;6.888;2022-10-15T09:33:40;15.60;99.90
5246;DHT22;54412;51.206;6.888;2022-10-15T09:41:46;15.70;99.90
5246;DHT22;54412;51.206;6.888;2022-10-15T09:44:24;15.70;99.90
5246;DHT22;54412;51.206;6.888;2022-10-15T09:46:58;15.80;99.90
5246;DHT22;54412;51.206;6.888;2022-10-15T09:49:26;15.80;99.90
5246;DHT22;54412;51.206;6.888;2022-10-15T09:52:19;15.90;99.90
5246;DHT22;54412;51.206;6.888;2022-10-15T09:58:22;16.00;99.90
5246;DHT22;54412;51.206;6.888;2022-10-15T10:01:00;16.00;99.90
5246;DHT22;54412;51.206;6.888;2022-10-15T10:03:30;16.10;99.90
5246;DHT22;54412;51.206;6.888;2022-10-15T10:06:08;16.30;99.90
5246;DHT22;54412;51.206;6.888;2022-10-15T10:08:47;16.40;99.90
5246;DHT22;54412;51.206;6.888;2022-10-15T10:11:25;16.50;99.90
5246;DHT22;54412;51.206;6.888;2022-10-15T10:13:59;16.40;99.90
5246;DHT22;54412;51.206;6.888;2022-10-15T10:16:25;16.50;99.90
5246;DHT22;54412;51.206;6.888;2022-10-15T10:21:36;16.40;99.90
5246;DHT22;54412;51.206;6.888;2022-10-15T10:24:29;16.30;99.90
5246;DHT22;54412;51.206;6.888;2022-10-15T10:27:02;16.30;99.90
5246;DHT22;54412;51.206;6.888;2022-10-15T10:29:31;16.30;99.90
5246;DHT22;54412;51.206;6.888;2022-10-15T10:32:11;16.30;99.90
5246;DHT22;54412;51.206;6.888;2022-10-15T10:34:44;16.20;99.90
5246;DHT22;54412;51.206;6.888;2022-10-15T10:37:10;16.10;99.90
5246;DHT22;54412;51.206;6.888;2022-10-15T10:39:37;16.10;99.90
5246;DHT22;54412;51.206;6.888;2022-10-15T10:42:22;16.10;99.90
5246;DHT22;54412;51.206;6.888;2022-10-15T10:44:52;16.20;99.90
5246;DHT22;54412;51.206;6.888;2022-10-15T10:47:25;16.10;99.90
5246;DHT22;54412;51.206;6.888;2022-10-15T10:49:53;16.10;99.90
5246;DHT22;54412;51.206;6.888;2022-10-15T10:54:59;16.10;99.90
5246;DHT22;54412;51.206;6.888;2022-10-15T10:57:41;16.10;99.90
5246;DHT22;54412;51.206;6.888;2022-10-15T11:00:37;16.20;99.90
5246;DHT22;54412;51.206;6.888;2022-10-15T11:03:40;16.20;99.90
5246;DHT22;54412;51.206;6.888;2022-10-15T11:20:55;16.40;99.90
5246;DHT22;54412;51.206;6.888;2022-10-15T11:23:38;16.40;99.90
5246;DHT22;54412;51.206;6.888;2022-10-15T11:26:25;16.50;99.90
5246;DHT22;54412;51.206;6.888;2022-10-15T11:29:19;16.40;99.90
5246;DHT22;54412;51.206;6.888;2022-10-15T11:35:54;16.40;99.90
5246;DHT22;54412;51.206;6.888;2022-10-15T11:38:54;16.40;99.90
5246;DHT22;54412;51.206;6.888;2022-10-15T11:41:35;16.50;99.90
5246;DHT22;54412;51.206;6.888;2022-10-15T11:44:30;16.60;99.90
5246;DHT22;54412;51.206;6.888;2022-10-15T11:47:20;16.70;99.90
5246;DHT22;54412;51.206;6.888;2022-10-15T11:56:04;16.70;99.90
5246;DHT22;54412;51.206;6.888;2022-10-15T11:58:44;16.80;99.90
5246;DHT22;54412;51.206;6.888;2022-10-15T12:01:28;16.80;99.90
5246;DHT22;54412;51.206;6.888;2022-10-15T12:04:02;16.80;99.90
5246;DHT22;54412;51.206;6.888;2022-10-15T12:06:39;16.80;99.90
5246;DHT22;54412;51.206;6.888;2022-10-15T12:09:15;16.80;99.90
5246;DHT22;54412;51.206;6.888;2022-10-15T12:12:15;16.90;99.90
5246;DHT22;54412;51.206;6.888;2022-10-15T12:20:41;17.20;99.90
5246;DHT22;54412;51.206;6.888;2022-10-15T12:23:40;17.30;99.90
5246;DHT22;54412;51.206;6.888;2022-10-15T12:26:26;17.50;99.90
5246;DHT22;54412;51.206;6.888;2022-10-15T12:28:57;17.60;99.90
5246;DHT22;54412;51.206;6.888;2022-10-15T12:31:42;17.60;99.90
5246;DHT22;54412;51.206;6.888;2022-10-15T12:34:29;17.60;99.90
5246;DHT22;54412;51.206;6.888;2022-10-15T12:37:04;17.60;99.90
5246;DHT22;54412;51.206;6.888;2022-10-15T12:39:41;17.50;99.90
5246;DHT22;54412;51.206;6.888;2022-10-15T12:42:28;17.60;99.90
5246;DHT22;54412;51.206;6.888;2022-10-15T12:44:59;17.70;99.90
5246;DHT22;54412;51.206;6.888;2022-10-15T12:47:53;17.70;99.90
5246;DHT22;54412;51.206;6.888;2022-10-15T12:50:28;17.80;99.90
5246;DHT22;54412;51.206;6.888;2022-10-15T12:52:59;17.80;99.90
5246;DHT22;54412;51.206;6.888;2022-10-15T12:55:44;17.80;99.90
5246;DHT22;54412;51.206;6.888;2022-10-15T12:58:39;17.90;99.90
5246;DHT22;54412;51.206;6.888;2022-10-15T13:08:48;18.10;99.90
5246;DHT22;54412;51.206;6.888;2022-10-15T13:11:29;18.20;99.90
5246;DHT22;54412;51.206;6.888;2022-10-15T13:14:26;18.30;99.90
5246;DHT22;54412;51.206;6.888;2022-10-15T13:17:05;18.30;99.90
5246;DHT22;54412;51.206;6.888;2022-10-15T13:19:51;18.20;99.90
5246;DHT22;54412;51.206;6.888;2022-10-15T13:22:25;18.20;99.90
5246;DHT22;54412;51.206;6.888;2022-10-15T13:24:54;18.20;99.90
5246;DHT22;54412;51.206;6.888;2022-10-15T13:27:30;18.20;99.90
5246;DHT22;54412;51.206;6.888;2022-10-15T13:30:00;18.60;99.90
5246;DHT22;54412;51.206;6.888;2022-10-15T13:32:31;18.90;99.90
5246;DHT22;54412;51.206;6.888;2022-10-15T13:35:10;18.90;99.90
5246;DHT22;54412;51.206;6.888;2022-10-15T13:37:39;18.80;99.90
5246;DHT22;54412;51.206;6.888;2022-10-15T13:40:06;18.80;99.90
5246;DHT22;54412;51.206;6.888;2022-10-15T13:42:32;18.80;99.90
5246;DHT22;54412;51.206;6.888;2022-10-15T13:45:17;18.70;99.90
5246;DHT22;54412;51.206;6.888;2022-10-15T13:47:48;18.70;99.90
5246;DHT22;54412;51.206;6.888;2022-10-15T13:52:56;18.60;99.90
5246;DHT22;54412;51.206;6.888;2022-10-15T13:55:31;18.50;99.90
5246;DHT22;54412;51.206;6.888;2022-10-15T13:58:13;18.40;99.90
5246;DHT22;54412;51.206;6.888;2022-10-15T14:03:30;18.40;99.90
5246;DHT22;54412;51.206;6.888;2022-10-15T14:08:45;18.40;99.90
5246;DHT22;54412;51.206;6.888;2022-10-15T14:11:12;18.40;99.90
5246;DHT22;54412;51.206;6.888;2022-10-15T14:13:50;18.40;99.90
5246;DHT22;54412;51.206;6.888;2022-10-15T14:16:38;18.40;99.90
5246;DHT22;54412;51.206;6.888;2022-10-15T14:21:32;18.30;99.90
5246;DHT22;54412;51.206;6.888;2022-10-15T14:24:05;18.30;99.90
5246;DHT22;54412;51.206;6.888;2022-10-15T14:26:36;18.30;99.90
5246;DHT22;54412;51.206;6.888;2022-10-15T14:29:04;18.50;99.90
5246;DHT22;54412;51.206;6.888;2022-10-15T14:31:37;18.40;99.90
5246;DHT22;54412;51.206;6.888;2022-10-15T14:34:26;18.40;99.90
5246;DHT22;54412;51.206;6.888;2022-10-15T14:45:30;18.30;99.90
5246;DHT22;54412;51.206;6.888;2022-10-15T14:48:24;18.40;99.90
5246;DHT22;54412;51.206;6.888;2022-10-15T14:50:59;18.30;99.90
5246;DHT22;54412;51.206;6.888;2022-10-15T14:53:29;18.30;99.90
5246;DHT22;54412;51.206;6.888;2022-10-15T14:56:07;18.20;99.90
5246;DHT22;54412;51.206;6.888;2022-10-15T14:58:46;18.40;99.90
5246;DHT22;54412;51.206;6.888;2022-10-15T15:01:18;18.60;99.90
5246;DHT22;54412;51.206;6.888;2022-10-15T15:03:47;18.50;99.90
5246;DHT22;54412;51.206;6.888;2022-10-15T15:06:15;18.50;99.90
5246;DHT22;54412;51.206;6.888;2022-10-15T15:08:41;18.40;99.90
5246;DHT22;54412;51.206;6.888;2022-10-15T15:11:11;18.30;99.90
5246;DHT22;54412;51.206;6.888;2022-10-15T15:13:42;18.30;99.90
5246;DHT22;54412;51.206;6.888;2022-10-15T15:16:14;18.30;99.90
5246;DHT22;54412;51.206;6.888;2022-10-15T15:18:41;18.20;99.90
5246;DHT22;54412;51.206;6.888;2022-10-15T15:21:12;18.20;99.90
5246;DHT22;54412;51.206;6.888;2022-10-15T15:23:40;18.30;99.90
5246;DHT22;54412;51.206;6.888;2022-10-15T15:26:06;18.20;99.90
5246;DHT22;54412;51.206;6.888;2022-10-15T15:28:32;18.10;99.90
5246;DHT22;54412;51.206;6.888;2022-10-15T15:31:04;17.90;99.90
5246;DHT22;54412;51.206;6.888;2022-10-15T15:33:32;17.80;99.90
5246;DHT22;54412;51.206;6.888;2022-10-15T15:36:16;17.70;99.90
5246;DHT22;54412;51.206;6.888;2022-10-15T15:38:43;17.60;99.90
5246;DHT22;54412;51.206;6.888;2022-10-15T15:41:17;17.60;99.90
5246;DHT22;54412;51.206;6.888;2022-10-15T15:43:45;17.50;99.90
5246;DHT22;54412;51.206;6.888;2022-10-15T15:46:11;17.50;99.90
5246;DHT22;54412;51.206;6.888;2022-10-15T15:48:37;17.40;99.90
5246;DHT22;54412;51.206;6.888;2022-10-15T15:51:05;17.40;99.90
5246;DHT22;54412;51.206;6.888;2022-10-15T15:53:49;17.30;99.90
5246;DHT22;54412;51.206;6.888;2022-10-15T15:56:15;17.30;99.90
5246;DHT22;54412;51.206;6.888;2022-10-15T15:58:41;17.30;99.90
5246;DHT22;54412;51.206;6.888;2022-10-15T16:01:07;17.30;99.90
5246;DHT22;54412;51.206;6.888;2022-10-15T16:03:33;17.20;99.90
5246;DHT22;54412;51.206;6.888;2022-10-15T16:05:59;17.20;99.90
5246;DHT22;54412;51.206;6.888;2022-10-15T16:08:24;17.20;99.90
5246;DHT22;54412;51.206;6.888;2022-10-15T16:10:50;17.20;99.90
5246;DHT22;54412;51.206;6.888;2022-10-15T16:13:16;17.10;99.90
5246;DHT22;54412;51.206;6.888;2022-10-15T16:15:41;17.10;99.90
5246;DHT22;54412;51.206;6.888;2022-10-15T16:18:07;17.10;99.90
5246;DHT22;54412;51.206;6.888;2022-10-15T16:20:33;17.10;99.90
5246;DHT22;54412;51.206;6.888;2022-10-15T16:23:03;17.10;99.90
5246;DHT22;54412;51.206;6.888;2022-10-15T16:25:29;17.10;99.90
5246;DHT22;54412;51.206;6.888;2022-10-15T16:27:55;17.00;99.90
5246;DHT22;54412;51.206;6.888;2022-10-15T16:30:21;17.00;99.90
5246;DHT22;54412;51.206;6.888;2022-10-15T16:32:47;16.90;99.90
5246;DHT22;54412;51.206;6.888;2022-10-15T16:35:13;17.00;99.90
5246;DHT22;54412;51.206;6.888;2022-10-15T16:37:38;16.90;99.90
5246;DHT22;54412;51.206;6.888;2022-10-15T16:40:05;16.90;99.90
5246;DHT22;54412;51.206;6.888;2022-10-15T16:42:31;16.80;99.90
5246;DHT22;54412;51.206;6.888;2022-10-15T16:44:57;16.80;99.90
5246;DHT22;54412;51.206;6.888;2022-10-15T16:47:22;16.80;99.90
5246;DHT22;54412;51.206;6.888;2022-10-15T16:49:48;16.80;99.90
5246;DHT22;54412;51.206;6.888;2022-10-15T16:52:14;16.80;99.90
5246;DHT22;54412;51.206;6.888;2022-10-15T16:54:40;16.80;99.90
5246;DHT22;54412;51.206;6.888;2022-10-15T16:57:06;16.80;99.90
5246;DHT22;54412;51.206;6.888;2022-10-15T16:59:31;16.80;99.90
5246;DHT22;54412;51.206;6.888;2022-10-15T17:01:57;16.70;99.90
5246;DHT22;54412;51.206;6.888;2022-10-15T17:04:25;16.80;99.90
5246;DHT22;54412;51.206;6.888;2022-10-15T17:06:51;16.80;99.90
5246;DHT22;54412;51.206;6.888;2022-10-15T17:09:16;16.70;99.90
5246;DHT22;54412;51.206;6.888;2022-10-15T17:11:42;16.70;99.90
5246;DHT22;54412;51.206;6.888;2022-10-15T17:14:12;16.70;99.90
5246;DHT22;54412;51.206;6.888;2022-10-15T17:16:48;16.70;99.90
5246;DHT22;54412;51.206;6.888;2022-10-15T17:19:17;16.70;99.90
5246;DHT22;54412;51.206;6.888;2022-10-15T17:21:45;16.70;99.90
5246;DHT22;54412;51.206;6.888;2022-10-15T17:24:13;16.70;99.90
5246;DHT22;54412;51.206;6.888;2022-10-15T17:26:41;16.70;99.90
5246;DHT22;54412;51.206;6.888;2022-10-15T17:29:16;16.70;99.90
5246;DHT22;54412;51.206;6.888;2022-10-15T17:31:45;16.60;99.90
5246;DHT22;54412;51.206;6.888;2022-10-15T17:34:12;16.70;99.90
5246;DHT22;54412;51.206;6.888;2022-10-15T17:36:45;16.60;99.90
5246;DHT22;54412;51.206;6.888;2022-10-15T17:39:14;16.60;99.90
5246;DHT22;54412;51.206;6.888;2022-10-15T17:41:41;16.70;99.90
5246;DHT22;54412;51.206;6.888;2022-10-15T17:44:08;16.70;99.90
5246;DHT22;54412;51.206;6.888;2022-10-15T17:46:36;16.70;99.90
5246;DHT22;54412;51.206;6.888;2022-10-15T17:49:02;16.70;99.90